Observations for CROTONE, Italy (LIBC)

LIBC 181450Z 04005KT 360V080 CAVOK 18/04 Q1021  
LIBC 181350Z 03006KT 350V070 CAVOK 17/04 Q1021  
LIBC 181250Z 05007KT 020V090 CAVOK 17/07 Q1021  
LIBC 181150Z 06010KT 020V080 CAVOK 17/07 Q1021  
LIBC 181050Z 04011KT 360V080 CAVOK 17/05 Q1021  
LIBC 180950Z 03012KT 360V060 CAVOK 17/06 Q1021  
LIBC 180850Z VRB08KT CAVOK 17/06 Q1021  
LIBC 180750Z 35010KT 330V030 CAVOK 16/05 Q1021  
LIBC 180650Z 36006KT CAVOK 15/06 Q1021  
LIBC 180600Z 32005KT CAVOK 13/07 Q1021
LIBC 171750Z 10003KT CAVOK 13/10 Q1018  
LIBC 171650Z 10005KT CAVOK 15/10 Q1018  
LIBC 171550Z 21005KT CAVOK 16/08 Q1018  
LIBC 171450Z 24005KT 9999 FEW015 15/09 Q1019